createdAt,value
2022-09-09T00:00:00.399Z,203.0
2022-09-09T00:05:00.398Z,190.6
2022-09-09T00:10:00.335Z,164.7
2022-09-09T00:15:00.453Z,181.1
2022-09-09T00:20:00.358Z,202.4
2022-09-09T00:25:00.366Z,178.1
2022-09-09T00:30:00.404Z,195.3
2022-09-09T00:35:00.358Z,190.5
2022-09-09T00:40:00.696Z,203.1
2022-09-09T00:45:00.379Z,202.5
2022-09-09T00:50:01.750Z,179.2
2022-09-09T00:55:00.365Z,183.2
2022-09-09T01:00:00.443Z,186.0
2022-09-09T01:05:00.355Z,204.9
2022-09-09T01:10:00.324Z,167.9
2022-09-09T01:15:00.384Z,171.4
2022-09-09T01:20:00.347Z,202.3
2022-09-09T01:25:00.402Z,202.5
2022-09-09T01:30:00.388Z,202.5
2022-09-09T01:35:00.425Z,202.5
2022-09-09T01:40:00.833Z,202.5
2022-09-09T01:45:00.381Z,202.5
2022-09-09T01:50:00.381Z,202.5
2022-09-09T01:55:00.351Z,202.5
2022-09-09T02:00:00.402Z,202.5
2022-09-09T02:05:00.362Z,202.5
2022-09-09T02:10:00.364Z,184.9
2022-09-09T02:15:00.346Z,180.0
2022-09-09T02:20:00.360Z,180.0
2022-09-09T02:25:00.400Z,180.0
2022-09-09T02:30:00.389Z,180.0
2022-09-09T02:35:00.418Z,180.1
2022-09-09T02:40:00.674Z,180.0
2022-09-09T02:45:00.329Z,135.3
2022-09-09T02:50:00.374Z,150.8
2022-09-09T02:55:00.393Z,201.9
2022-09-09T03:00:00.405Z,203.7
2022-09-09T03:05:00.374Z,177.6
2022-09-09T03:10:00.355Z,180.0
2022-09-09T03:15:00.465Z,180.0
2022-09-09T03:20:00.430Z,159.9
2022-09-09T03:25:00.406Z,156.1
2022-09-09T03:30:00.365Z,197.1
2022-09-09T03:35:00.378Z,160.7
2022-09-09T03:40:00.824Z,157.5
2022-09-09T03:45:00.396Z,157.5
2022-09-09T03:50:00.398Z,157.5
2022-09-09T03:55:00.428Z,157.5
2022-09-09T04:00:00.395Z,157.5
2022-09-09T04:05:00.381Z,157.5
2022-09-09T04:10:00.406Z,157.5
2022-09-09T04:15:00.380Z,157.5
2022-09-09T04:20:00.370Z,157.5
2022-09-09T04:25:00.374Z,157.5
2022-09-09T04:30:00.368Z,157.5
2022-09-09T04:35:00.377Z,157.5
2022-09-09T04:40:00.705Z,157.5
2022-09-09T04:45:00.382Z,157.5
2022-09-09T04:50:00.350Z,157.5
2022-09-09T04:55:00.355Z,157.5
2022-09-09T05:00:00.382Z,157.5
2022-09-09T05:05:00.385Z,157.5
2022-09-09T05:10:00.413Z,157.5
2022-09-09T05:15:00.371Z,157.5
2022-09-09T05:20:00.404Z,173.0
2022-09-09T05:25:00.380Z,203.0
2022-09-09T05:30:00.380Z,204.4
2022-09-09T05:35:00.382Z,182.1
2022-09-09T05:40:00.653Z,168.8
2022-09-09T05:45:00.395Z,185.6
2022-09-09T05:50:00.397Z,191.1
2022-09-09T05:55:00.436Z,159.9
2022-09-09T06:00:00.466Z,160.3
2022-09-09T06:05:01.057Z,172.5
2022-09-09T06:10:00.354Z,167.4
2022-09-09T06:15:00.395Z,178.3
2022-09-09T06:20:00.343Z,171.5
2022-09-09T06:25:00.610Z,176.7
2022-09-09T06:30:00.400Z,181.1
2022-09-09T06:35:00.383Z,175.3
2022-09-09T06:40:00.783Z,172.4
2022-09-09T06:45:00.420Z,194.6
2022-09-09T06:50:00.352Z,181.9
2022-09-09T06:55:00.395Z,180.7
2022-09-09T07:00:00.362Z,190.7
2022-09-09T07:05:00.379Z,179.2
2022-09-09T07:10:00.367Z,192.2
2022-09-09T07:15:00.408Z,178.2
2022-09-09T07:20:00.371Z,176.1
2022-09-09T07:25:00.403Z,199.8
2022-09-09T07:30:00.498Z,200.7
2022-09-09T07:35:00.406Z,193.6
2022-09-09T07:40:00.825Z,195.0
2022-09-09T07:45:00.413Z,199.3
2022-09-09T07:50:00.410Z,233.8
2022-09-09T07:55:01.924Z,183.0
2022-09-09T08:00:00.508Z,176.9
2022-09-09T08:05:00.425Z,188.5
2022-09-09T08:10:00.418Z,187.5
2022-09-09T08:15:00.434Z,187.3
2022-09-09T08:20:00.508Z,209.6
2022-09-09T08:25:00.415Z,167.9
2022-09-09T08:30:00.434Z,193.8
2022-09-09T08:35:01.921Z,165.4
2022-09-09T08:40:00.747Z,174.9
2022-09-09T08:45:00.455Z,196.1
2022-09-09T08:50:00.436Z,184.0
2022-09-09T08:55:00.414Z,199.3
2022-09-09T09:00:00.415Z,167.2
2022-09-09T09:05:00.793Z,186.1
2022-09-09T09:10:00.408Z,178.9
2022-09-09T09:15:00.411Z,163.9
2022-09-09T09:20:00.441Z,166.5
2022-09-09T09:25:00.386Z,174.5
2022-09-09T09:30:30.684Z,202.0
2022-09-09T09:35:00.430Z,184.7
2022-09-09T09:45:00.594Z,192.8
2022-09-09T09:50:00.719Z,173.3
2022-09-09T09:55:08.284Z,151.1
2022-09-09T10:00:00.494Z,176.7
2022-09-09T10:05:00.712Z,185.8
2022-09-09T10:10:00.455Z,160.6
2022-09-09T10:15:00.422Z,173.4
2022-09-09T10:20:00.483Z,161.0
2022-09-09T10:25:00.432Z,202.0
2022-09-09T10:30:00.429Z,188.3
2022-09-09T10:35:00.419Z,78.0
2022-09-09T10:40:00.714Z,157.1
2022-09-09T10:45:00.452Z,183.2
2022-09-09T10:50:00.522Z,201.1
2022-09-09T10:55:00.351Z,202.0
2022-09-09T11:00:00.379Z,203.6
2022-09-09T11:05:00.434Z,214.2
2022-09-09T11:10:00.459Z,185.7
2022-09-09T11:15:00.403Z,182.4
2022-09-09T11:20:00.431Z,215.0
2022-09-09T11:25:00.594Z,185.4
2022-09-09T11:30:00.551Z,172.8
2022-09-09T11:35:00.391Z,195.7
2022-09-09T11:40:00.747Z,154.0
2022-09-09T11:45:00.349Z,176.8
2022-09-09T11:50:00.352Z,194.5
2022-09-09T11:55:00.376Z,186.7
2022-09-09T12:00:00.388Z,173.3
2022-09-09T12:05:00.554Z,165.7
2022-09-09T12:10:00.396Z,175.1
2022-09-09T12:15:00.456Z,172.5
2022-09-09T12:20:00.388Z,190.0
2022-09-09T12:25:00.392Z,197.8
2022-09-09T12:30:00.363Z,195.2
2022-09-09T12:35:00.356Z,181.5
2022-09-09T12:40:00.712Z,177.8
2022-09-09T12:45:00.367Z,191.2
2022-09-09T12:50:00.385Z,196.1
2022-09-09T12:55:00.399Z,189.6
2022-09-09T13:00:00.368Z,215.5
2022-09-09T13:05:00.819Z,189.8
2022-09-09T13:10:00.367Z,185.1
2022-09-09T13:15:00.402Z,193.9
2022-09-09T13:20:00.459Z,204.1
2022-09-09T13:25:00.422Z,199.2
2022-09-09T13:30:00.696Z,190.3
2022-09-09T13:35:00.420Z,189.8
2022-09-09T13:40:01.170Z,198.9
2022-09-09T13:45:00.375Z,198.3
2022-09-09T13:50:00.389Z,201.3
2022-09-09T13:55:00.413Z,214.6
2022-09-09T14:00:07.018Z,198.3
2022-09-09T14:05:00.389Z,186.7
2022-09-09T14:10:00.333Z,208.4
2022-09-09T14:15:00.370Z,201.0
2022-09-09T14:20:00.388Z,181.6
2022-09-09T14:25:00.506Z,176.5
2022-09-09T14:30:00.384Z,174.9
2022-09-09T14:35:00.399Z,181.9
2022-09-09T14:40:00.738Z,188.6
2022-09-09T14:45:00.354Z,199.1
2022-09-09T14:50:00.355Z,205.5
2022-09-09T14:55:00.359Z,186.5
2022-09-09T15:00:00.344Z,188.0
2022-09-09T15:05:00.379Z,200.4
2022-09-09T15:10:00.361Z,204.6
2022-09-09T15:15:00.379Z,205.0
2022-09-09T15:20:00.374Z,189.1
2022-09-09T15:25:00.369Z,181.1
2022-09-09T15:30:00.401Z,252.0
2022-09-09T15:35:00.382Z,253.5
2022-09-09T15:40:00.653Z,267.3
2022-09-09T15:45:00.423Z,314.2
2022-09-09T15:50:00.399Z,315.0
2022-09-09T15:55:00.378Z,304.9
2022-09-09T16:00:00.343Z,311.5
2022-09-09T16:05:00.384Z,294.0
2022-09-09T16:10:00.407Z,311.9
2022-09-09T16:15:00.393Z,309.4
2022-09-09T16:20:00.365Z,307.9
2022-09-09T16:25:00.377Z,270.6
2022-09-09T16:30:00.320Z,248.2
2022-09-09T16:35:00.411Z,247.5
2022-09-09T16:40:00.789Z,247.5
2022-09-09T16:45:00.414Z,247.5
2022-09-09T16:50:00.393Z,247.5
2022-09-09T16:55:00.399Z,247.5
2022-09-09T17:00:00.539Z,68.1
2022-09-09T17:05:00.389Z,67.5
2022-09-09T17:10:00.359Z,89.4
2022-09-09T17:15:00.410Z,90.0
2022-09-09T17:20:00.469Z,90.0
2022-09-09T17:25:00.391Z,90.0
2022-09-09T17:30:00.401Z,76.1
2022-09-09T17:35:00.475Z,67.6
2022-09-09T17:40:00.790Z,67.5
2022-09-09T17:45:00.405Z,92.0
2022-09-09T17:50:00.409Z,65.1
2022-09-09T17:55:00.393Z,67.5
2022-09-09T18:00:00.384Z,88.7
2022-09-09T18:05:00.407Z,90.0
2022-09-09T18:10:00.401Z,90.0
2022-09-09T18:15:04.547Z,90.0
2022-09-09T18:20:00.375Z,179.4
2022-09-09T18:25:00.392Z,180.0
2022-09-09T18:30:00.432Z,180.0
2022-09-09T18:35:00.382Z,177.5
2022-09-09T18:40:00.628Z,157.5
2022-09-09T18:45:00.379Z,163.2
2022-09-09T18:50:00.455Z,172.7
2022-09-09T18:55:00.357Z,191.9
2022-09-09T19:00:00.405Z,172.6
2022-09-09T19:05:00.504Z,164.9
2022-09-09T19:10:00.959Z,150.4
2022-09-09T19:15:00.344Z,179.2
2022-09-09T19:20:00.370Z,180.8
2022-09-09T19:25:00.356Z,165.8
2022-09-09T19:30:00.412Z,175.2
2022-09-09T19:35:00.498Z,164.1
2022-09-09T19:40:00.725Z,164.2
2022-09-09T19:45:00.376Z,189.2
2022-09-09T19:50:00.397Z,189.4
2022-09-09T19:55:00.380Z,199.2
2022-09-09T20:00:00.395Z,190.1
2022-09-09T20:05:00.391Z,166.5
2022-09-09T20:10:00.603Z,187.7
2022-09-09T20:15:00.417Z,164.5
2022-09-09T20:20:00.471Z,158.8
2022-09-09T20:25:00.388Z,175.2
2022-09-09T20:30:00.623Z,176.1
2022-09-09T20:35:00.377Z,189.7
2022-09-09T20:40:00.765Z,176.4
2022-09-09T20:45:00.373Z,169.9
2022-09-09T20:50:00.420Z,184.0
2022-09-09T20:55:00.354Z,171.9
2022-09-09T21:00:00.406Z,184.5
2022-09-09T21:05:00.375Z,162.4
2022-09-09T21:10:00.376Z,171.4
2022-09-09T21:15:00.370Z,194.3
2022-09-09T21:20:00.419Z,168.2
2022-09-09T21:25:00.384Z,155.7
2022-09-09T21:30:00.476Z,202.6
2022-09-09T21:35:00.372Z,160.0
2022-09-09T21:40:00.703Z,157.7
2022-09-09T21:45:00.385Z,161.2
2022-09-09T21:50:00.402Z,157.5
2022-09-09T21:55:00.389Z,129.5
2022-09-09T22:00:00.500Z,145.4
2022-09-09T22:05:00.376Z,177.1
2022-09-09T22:10:00.411Z,158.4
2022-09-09T22:15:00.380Z,152.9
2022-09-09T22:20:00.398Z,164.2
2022-09-09T22:25:00.380Z,147.2
2022-09-09T22:30:00.440Z,157.0
2022-09-09T22:35:00.331Z,156.8
2022-09-09T22:40:00.693Z,155.9
2022-09-09T22:45:00.389Z,181.4
2022-09-09T22:50:00.356Z,171.1
2022-09-09T22:55:00.392Z,194.3
2022-09-09T23:00:00.359Z,163.1
2022-09-09T23:05:00.396Z,163.3
2022-09-09T23:10:00.441Z,157.3
2022-09-09T23:15:00.373Z,199.1
2022-09-09T23:20:00.332Z,224.1
2022-09-09T23:25:00.406Z,176.6
2022-09-09T23:30:00.380Z,183.3
2022-09-09T23:35:00.433Z,179.4
2022-09-09T23:40:00.674Z,181.9
2022-09-09T23:45:00.376Z,174.3
2022-09-09T23:50:00.388Z,176.4
2022-09-09T23:55:00.374Z,182.5
